Time;durP1;ratioP1;P1;durP2;ratioP2;P2;SDS_P1;SDS_P2;PMS_P1;PMS_P2;Temp;Humidity;BMP_temperature;BMP_pressure;BME280_temperature;BME280_humidity;BME280_pressure;Samples;Min_cycle;Max_cycle;Signal;HPM_P1;HPM_P2
2023/07/04 00:00:35;;;;;;;8.73;4.60;;;22.30;99.90;;;;;;5053096;28;20033;-49
2023/07/04 00:03:01;;;;;;;10.65;5.25;;;21.90;99.90;;;;;;5052948;28;20024;-49
2023/07/04 00:05:26;;;;;;;12.55;4.15;;;21.70;99.90;;;;;;5053200;28;20037;-49
2023/07/04 00:07:52;;;;;;;10.05;4.25;;;21.50;99.90;;;;;;5051057;28;20028;-49
2023/07/04 00:10:20;;;;;;;8.50;4.07;;;21.40;99.90;;;;;;5050726;28;20041;-49
2023/07/04 00:12:46;;;;;;;5.95;3.83;;;21.60;99.90;;;;;;5066843;28;20488;-52
2023/07/04 00:15:13;;;;;;;13.02;4.60;;;21.70;99.90;;;;;;5051068;28;20017;-50
2023/07/04 00:17:39;;;;;;;7.13;4.47;;;22.00;99.90;;;;;;5065918;28;20491;-48
2023/07/04 00:20:06;;;;;;;8.15;4.65;;;22.10;99.90;;;;;;5065398;28;20510;-49
2023/07/04 00:22:33;;;;;;;7.88;4.18;;;22.20;99.90;;;;;;5068788;28;20478;-49
2023/07/04 00:24:59;;;;;;;7.10;4.30;;;22.20;99.90;;;;;;5068035;28;20078;-49
2023/07/04 00:27:25;;;;;;;7.57;4.07;;;22.30;99.90;;;;;;5068789;28;20086;-49
2023/07/04 00:29:51;;;;;;;8.75;4.38;;;22.30;99.90;;;;;;5067241;28;20115;-50
2023/07/04 00:32:17;;;;;;;10.57;4.20;;;22.20;99.90;;;;;;5068797;28;20045;-49
2023/07/04 00:34:45;;;;;;;8.00;3.78;;;22.20;99.90;;;;;;5069722;28;20032;-49
2023/07/04 00:37:12;;;;;;;6.93;4.00;;;22.30;99.90;;;;;;5070528;28;20472;-49
2023/07/04 00:39:37;;;;;;;7.10;3.35;;;22.30;99.90;;;;;;5068167;28;20537;-52
2023/07/04 00:42:08;;;;;;;9.93;4.07;;;22.30;99.90;;;;;;5069412;28;20021;-49
2023/07/04 00:44:37;;;;;;;8.30;4.60;;;22.30;99.90;;;;;;5065714;28;20232;-50
2023/07/04 00:47:42;;;;;;;7.85;4.05;;;22.00;99.90;;;;;;5067379;28;20064;-49
2023/07/04 00:50:09;;;;;;;8.40;4.45;;;21.80;99.90;;;;;;5051235;28;20032;-49
2023/07/04 00:52:36;;;;;;;10.27;3.97;;;21.90;99.90;;;;;;5049423;28;20447;-49
2023/07/04 00:55:07;;;;;;;9.35;4.05;;;21.80;99.90;;;;;;5051180;28;20059;-49
2023/07/04 00:57:33;;;;;;;7.65;4.25;;;21.90;99.90;;;;;;5049256;28;20654;-49
2023/07/04 01:00:23;;;;;;;7.03;4.00;;;22.00;99.90;;;;;;5049348;28;20087;-49
2023/07/04 01:03:00;;;;;;;8.55;4.40;;;21.50;99.90;;;;;;5032208;28;20095;-49
2023/07/04 01:05:32;;;;;;;6.75;3.42;;;;;;;;;;5010015;28;20128;-50
2023/07/04 01:08:00;;;;;;;6.15;3.78;;;20.50;99.90;;;;;;5047127;28;20044;-49
2023/07/04 01:10:42;;;;;;;7.80;4.43;;;;;;;;;;5049546;28;20041;-49
2023/07/04 01:13:27;;;;;;;5.60;3.33;;;20.90;99.90;;;;;;5048495;28;20106;-49
2023/07/04 01:15:52;;;;;;;9.07;4.05;;;21.30;99.90;;;;;;5030638;28;20033;-49
2023/07/04 01:18:19;;;;;;;8.07;4.70;;;21.50;99.90;;;;;;5049363;28;20037;-49
2023/07/04 01:20:47;;;;;;;7.82;3.78;;;21.70;99.90;;;;;;5049436;28;20043;-49
2023/07/04 01:23:22;;;;;;;8.77;3.72;;;21.80;99.90;;;;;;5049152;28;20041;-49
2023/07/04 01:25:57;;;;;;;9.00;3.83;;;21.90;99.90;;;;;;5049805;28;20025;-52
2023/07/04 01:28:24;;;;;;;5.22;3.30;;;22.00;99.90;;;;;;5047779;28;20048;-49
2023/07/04 01:30:51;;;;;;;8.68;4.57;;;22.00;99.90;;;;;;5049989;28;20072;-50
2023/07/04 01:33:21;;;;;;;8.45;3.95;;;22.00;99.90;;;;;;5043977;28;20033;-51
2023/07/04 01:35:46;;;;;;;6.78;3.83;;;21.80;99.90;;;;;;5052264;28;20032;-49
2023/07/04 01:38:12;;;;;;;11.15;3.63;;;21.80;99.90;;;;;;5069261;28;20036;-49
2023/07/04 01:40:38;;;;;;;6.85;3.75;;;22.00;99.90;;;;;;5051239;28;20040;-49
2023/07/04 01:43:04;;;;;;;6.30;3.35;;;22.00;99.90;;;;;;5065235;28;20041;-48
2023/07/04 01:45:30;;;;;;;6.80;3.92;;;21.90;99.90;;;;;;5050173;28;20373;-50
2023/07/04 01:47:55;;;;;;;6.55;4.03;;;21.80;99.90;;;;;;5085912;28;20052;-49
2023/07/04 01:50:21;;;;;;;5.70;3.55;;;21.50;99.90;;;;;;5051149;28;20051;-49
2023/07/04 01:52:47;;;;;;;8.88;3.78;;;21.40;99.90;;;;;;5079923;28;20148;-50
2023/07/04 01:55:14;;;;;;;7.80;3.78;;;21.40;99.90;;;;;;5051861;28;20017;-49
2023/07/04 01:57:40;;;;;;;6.78;3.78;;;21.40;99.90;;;;;;5055169;28;20051;-49
2023/07/04 02:00:09;;;;;;;11.63;4.47;;;21.30;99.90;;;;;;5055776;28;20048;-50
2023/07/04 02:02:37;;;;;;;6.50;3.63;;;21.20;99.90;;;;;;5054965;28;20040;-49
2023/07/04 02:05:03;;;;;;;9.43;3.95;;;21.10;99.90;;;;;;5055049;28;20388;-49
2023/07/04 02:07:29;;;;;;;7.53;4.55;;;20.80;99.90;;;;;;5054585;28;20036;-50
2023/07/04 02:09:55;;;;;;;7.00;3.90;;;;;;;;;;5054039;28;20025;-49
2023/07/04 02:12:21;;;;;;;7.55;4.47;;;;;;;;;;5069730;28;20067;-49
2023/07/04 02:14:48;;;;;;;9.50;4.20;;;20.20;99.90;;;;;;5069346;28;20044;-48
2023/07/04 02:17:14;;;;;;;7.00;4.45;;;20.30;99.90;;;;;;5054516;28;20469;-49
2023/07/04 02:19:40;;;;;;;6.68;3.38;;;20.40;99.90;;;;;;5055166;28;20028;-49
2023/07/04 02:22:05;;;;;;;6.85;4.10;;;20.50;99.90;;;;;;5052366;28;20396;-49
2023/07/04 02:24:31;;;;;;;9.60;3.88;;;20.20;99.90;;;;;;5069512;28;20049;-49
2023/07/04 02:26:57;;;;;;;10.90;4.00;;;20.10;99.90;;;;;;5081337;28;20132;-49
2023/07/04 02:29:23;;;;;;;7.75;3.88;;;20.30;99.90;;;;;;5069155;28;20041;-50
2023/07/04 02:31:48;;;;;;;6.65;4.28;;;20.50;99.90;;;;;;5053520;28;20040;-49
2023/07/04 02:34:14;;;;;;;8.43;3.45;;;20.50;99.90;;;;;;5054406;28;20507;-48
2023/07/04 02:36:40;;;;;;;6.85;3.63;;;20.50;99.90;;;;;;5054690;28;20033;-49
2023/07/04 02:39:05;;;;;;;8.68;3.60;;;20.60;99.90;;;;;;5054145;28;20029;-49
2023/07/04 02:41:32;;;;;;;7.40;3.95;;;20.20;99.90;;;;;;5086099;28;20033;-50
2023/07/04 02:43:59;;;;;;;6.07;3.80;;;20.00;99.90;;;;;;5055272;28;20353;-49
2023/07/04 02:46:25;;;;;;;7.68;3.78;;;20.20;99.90;;;;;;5054204;28;20160;-49
2023/07/04 02:48:51;;;;;;;7.28;4.55;;;20.00;99.90;;;;;;5052206;28;20124;-49
2023/07/04 02:51:17;;;;;;;5.80;3.47;;;19.80;99.90;;;;;;5053579;28;20035;-49
2023/07/04 02:53:42;;;;;;;7.40;4.65;;;19.70;99.90;;;;;;5069199;28;20045;-49
2023/07/04 02:56:08;;;;;;;6.47;4.05;;;19.80;99.90;;;;;;5054135;28;20108;-50
2023/07/04 02:58:34;;;;;;;8.10;3.92;;;19.80;99.90;;;;;;5052278;28;20064;-49
2023/07/04 03:01:03;;;;;;;9.52;4.30;;;19.90;99.90;;;;;;5053076;28;20025;-49
2023/07/04 03:03:29;;;;;;;6.97;3.75;;;20.10;99.90;;;;;;5054235;28;20472;-49
2023/07/04 03:05:56;;;;;;;6.13;3.63;;;20.10;99.90;;;;;;5052211;28;20041;-49
2023/07/04 03:08:21;;;;;;;7.35;3.97;;;20.40;99.90;;;;;;5051539;28;20033;-51
2023/07/04 03:10:48;;;;;;;9.07;3.83;;;20.60;99.90;;;;;;5053666;28;20191;-49
2023/07/04 03:13:14;;;;;;;6.97;4.00;;;20.80;99.90;;;;;;5034857;28;20037;-49
2023/07/04 03:15:40;;;;;;;10.90;4.13;;;20.80;99.90;;;;;;5068821;28;20507;-49
2023/07/04 03:18:07;;;;;;;7.47;3.25;;;20.90;99.90;;;;;;5053505;28;20036;-49
2023/07/04 03:20:33;;;;;;;8.10;3.85;;;21.00;99.90;;;;;;5052888;28;20040;-49
2023/07/04 03:22:59;;;;;;;7.88;4.15;;;20.90;99.90;;;;;;5054102;28;20033;-49
2023/07/04 03:25:24;;;;;;;5.53;3.88;;;20.80;99.90;;;;;;5050991;28;20033;-48
2023/07/04 03:27:50;;;;;;;5.97;3.15;;;20.90;99.90;;;;;;5051460;28;20468;-50
2023/07/04 03:30:16;;;;;;;7.18;3.90;;;21.00;99.90;;;;;;5053425;28;20021;-49
2023/07/04 03:32:41;;;;;;;6.25;3.65;;;21.20;99.90;;;;;;5053337;28;20163;-50
2023/07/04 03:35:08;;;;;;;5.03;3.63;;;21.40;99.90;;;;;;5053844;28;20314;-49
2023/07/04 03:37:35;;;;;;;5.78;3.92;;;21.50;99.90;;;;;;5053536;28;20086;-48
2023/07/04 03:40:06;;;;;;;6.60;3.78;;;21.50;99.90;;;;;;5051249;28;20035;-49
2023/07/04 03:42:33;;;;;;;6.17;4.10;;;21.60;99.90;;;;;;5053308;28;20032;-49
2023/07/04 03:44:59;;;;;;;7.30;3.88;;;21.40;99.90;;;;;;5052791;28;20061;-49
2023/07/04 03:47:25;;;;;;;8.05;3.90;;;21.00;99.90;;;;;;5084530;28;20109;-49
2023/07/04 03:49:50;;;;;;;7.30;4.10;;;21.10;99.90;;;;;;5053266;28;20051;-49
2023/07/04 03:52:16;;;;;;;7.15;4.47;;;21.30;99.90;;;;;;5053637;28;20051;-49
2023/07/04 03:54:42;;;;;;;7.88;3.90;;;21.30;99.90;;;;;;5083908;28;20466;-49
2023/07/04 03:57:08;;;;;;;8.68;4.30;;;21.30;99.90;;;;;;5068322;28;20076;-49
2023/07/04 03:59:34;;;;;;;7.90;4.35;;;21.50;99.90;;;;;;5052935;28;20029;-49
2023/07/04 04:02:00;;;;;;;7.65;4.20;;;21.40;99.90;;;;;;5052892;28;20033;-48
2023/07/04 04:04:26;;;;;;;12.32;4.65;;;21.70;99.90;;;;;;5053830;28;20074;-49
2023/07/04 04:06:56;;;;;;;7.95;4.30;;;21.60;99.90;;;;;;5050711;28;20045;-49
2023/07/04 04:09:22;;;;;;;7.78;4.30;;;21.60;99.90;;;;;;5052452;28;20476;-49
2023/07/04 04:11:49;;;;;;;7.97;4.00;;;21.80;99.90;;;;;;5052605;28;20033;-50
2023/07/04 04:14:15;;;;;;;9.05;4.07;;;21.90;99.90;;;;;;5044869;28;20499;-49
2023/07/04 04:16:41;;;;;;;6.95;4.05;;;21.90;99.90;;;;;;5052989;28;20029;-49
2023/07/04 04:19:06;;;;;;;8.65;4.45;;;22.00;99.90;;;;;;5063611;28;20090;-50
2023/07/04 04:21:32;;;;;;;7.30;4.05;;;22.00;99.90;;;;;;5052768;28;20054;-50
2023/07/04 04:23:58;;;;;;;7.88;4.43;;;22.00;99.90;;;;;;5066273;28;20067;-52
2023/07/04 04:26:24;;;;;;;8.55;4.53;;;22.00;99.90;;;;;;5052375;28;20021;-50
2023/07/04 04:28:50;;;;;;;7.28;4.63;;;22.10;99.90;;;;;;5050632;28;20032;-51
2023/07/04 04:31:17;;;;;;;6.32;3.97;;;22.20;99.90;;;;;;5098723;28;20041;-49
2023/07/04 04:33:43;;;;;;;11.85;5.50;;;22.20;99.90;;;;;;5084065;28;20045;-48
2023/07/04 04:36:08;;;;;;;9.95;4.65;;;22.00;99.90;;;;;;5051855;28;20112;-48
2023/07/04 04:38:36;;;;;;;8.60;4.18;;;22.10;99.90;;;;;;5051069;28;20458;-48
2023/07/04 04:41:06;;;;;;;7.43;4.65;;;22.10;99.90;;;;;;5048651;28;20029;-49
2023/07/04 04:43:34;;;;;;;10.18;4.95;;;22.10;99.90;;;;;;5048496;28;20128;-48
2023/07/04 04:46:03;;;;;;;10.50;5.38;;;22.30;99.90;;;;;;5068963;28;20436;-48
2023/07/04 04:48:35;;;;;;;8.73;4.72;;;22.40;99.90;;;;;;5049650;28;20565;-50
2023/07/04 04:51:08;;;;;;;;;;;22.40;99.90;;;;;;5049337;28;20029;-49
2023/07/04 04:53:39;;;;;;;8.00;4.55;;;22.40;99.90;;;;;;5050942;28;19917;-49
2023/07/04 04:56:06;;;;;;;8.52;4.60;;;22.50;99.90;;;;;;5049473;28;20033;-49
2023/07/04 04:58:32;;;;;;;8.60;4.63;;;22.50;99.90;;;;;;5051477;28;20067;-49
2023/07/04 05:01:10;;;;;;;7.72;4.53;;;22.60;99.90;;;;;;5064598;28;20066;-50
2023/07/04 05:03:36;;;;;;;8.07;4.80;;;22.50;99.90;;;;;;5051883;28;20052;-49
2023/07/04 05:06:03;;;;;;;9.65;4.93;;;22.40;99.90;;;;;;5051244;28;20049;-49
2023/07/04 05:08:28;;;;;;;12.05;5.18;;;22.50;99.90;;;;;;5045802;28;20459;-51
2023/07/04 05:11:06;;;;;;;7.72;4.75;;;22.90;99.90;;;;;;5051311;28;20050;-50
2023/07/04 05:13:37;;;;;;;8.27;5.10;;;22.80;99.90;;;;;;5051247;28;20074;-52
2023/07/04 05:16:06;;;;;;;7.65;5.20;;;22.90;99.90;;;;;;5050282;28;20037;-52
2023/07/04 05:18:33;;;;;;;10.57;5.07;;;;;;;;;;5050578;28;20022;-49
2023/07/04 05:21:00;;;;;;;9.10;4.60;;;;;;;;;;5063429;28;20048;-49
2023/07/04 05:23:26;;;;;;;10.45;5.32;;;23.60;99.90;;;;;;5064089;28;20052;-50
2023/07/04 05:26:02;;;;;;;8.50;5.18;;;23.70;99.90;;;;;;5048954;28;20040;-51
2023/07/04 05:28:32;;;;;;;13.00;4.25;;;;;;;;;;5048424;28;20060;-50
2023/07/04 05:31:17;;;;;;;10.82;5.32;;;24.10;99.90;;;;;;5069455;28;20182;-50
2023/07/04 05:33:44;;;;;;;27.83;6.55;;;24.20;99.90;;;;;;5054730;28;20124;-51
2023/07/04 05:36:16;;;;;;;13.02;6.72;;;;;;;;;;5048705;28;20025;-51
2023/07/04 05:38:42;;;;;;;8.95;5.45;;;;;;;;;;5055823;28;20028;-50
2023/07/04 05:41:10;;;;;;;10.85;5.60;;;;;;;;;;5055666;28;20025;-51
2023/07/04 05:43:36;;;;;;;10.18;4.95;;;24.70;99.90;;;;;;5055364;28;20021;-49
2023/07/04 05:46:03;;;;;;;9.40;4.88;;;24.60;99.90;;;;;;5053106;28;20030;-49
2023/07/04 05:48:29;;;;;;;7.22;4.50;;;;;;;;;;5055661;28;20028;-50
2023/07/04 05:51:00;;;;;;;10.00;5.05;;;24.70;99.90;;;;;;5072935;28;20045;-51
2023/07/04 05:53:30;;;;;;;8.18;4.70;;;;;;;;;;5053517;28;20041;-50
2023/07/04 05:56:06;;;;;;;8.43;4.82;;;24.90;99.90;;;;;;5054950;28;20124;-51
2023/07/04 05:58:32;;;;;;;8.30;4.40;;;24.80;99.90;;;;;;5049280;28;20030;-49
2023/07/04 06:01:03;;;;;;;8.45;4.93;;;;;;;;;;5054625;28;20033;-48
2023/07/04 06:03:29;;;;;;;8.23;4.63;;;;;;;;;;5055714;28;20063;-50
2023/07/04 06:05:55;;;;;;;7.50;4.35;;;25.20;99.90;;;;;;5052340;28;20033;-51
2023/07/04 06:08:21;;;;;;;9.27;5.05;;;25.10;99.90;;;;;;5054980;28;20568;-52
2023/07/04 06:10:57;;;;;;;8.80;4.68;;;;;;;;;;5053300;28;20021;-51
2023/07/04 06:13:23;;;;;;;10.15;4.97;;;;;;;;;;5055312;28;20024;-51
2023/07/04 06:15:49;;;;;;;7.38;5.22;;;;;;;;;;5067927;28;20037;-50
2023/07/04 06:18:15;;;;;;;8.13;4.30;;;;;;;;;;5054949;28;20024;-50
2023/07/04 06:20:41;;;;;;;10.43;5.97;;;;;;;;;;5050964;28;20064;-50
2023/07/04 06:23:07;;;;;;;9.32;5.32;;;;;;;;;;5052544;28;21401;-48
2023/07/04 06:25:33;;;;;;;7.60;5.00;;;26.10;99.90;;;;;;5069363;28;20049;-51
2023/07/04 06:28:00;;;;;;;11.88;5.80;;;26.00;99.90;;;;;;5054306;28;20037;-52
2023/07/04 06:30:29;;;;;;;12.70;6.03;;;26.00;99.90;;;;;;5050797;28;20053;-51
2023/07/04 06:32:56;;;;;;;10.10;5.22;;;25.90;99.90;;;;;;5054421;28;20103;-50
2023/07/04 06:35:22;;;;;;;10.30;6.10;;;25.80;99.90;;;;;;5054710;28;20115;-51
2023/07/04 06:37:47;;;;;;;9.00;5.05;;;25.60;99.90;;;;;;5054062;28;20064;-51
2023/07/04 06:40:13;;;;;;;8.60;5.32;;;25.70;99.90;;;;;;5053355;28;20041;-52
2023/07/04 06:42:39;;;;;;;11.45;5.28;;;25.80;99.90;;;;;;5063476;28;20467;-51
2023/07/04 06:45:05;;;;;;;9.05;5.60;;;25.90;99.90;;;;;;5054322;28;20029;-49
2023/07/04 06:47:31;;;;;;;10.00;4.95;;;;;;;;;;5086070;28;20059;-49
2023/07/04 06:49:58;;;;;;;11.20;4.53;;;;;;;;;;5054204;28;20060;-49
2023/07/04 06:52:24;;;;;;;10.10;4.90;;;;;;;;;;5054163;28;20021;-50
2023/07/04 06:54:51;;;;;;;7.22;4.45;;;27.40;99.90;;;;;;5054909;28;20108;-50
2023/07/04 06:57:18;;;;;;;8.05;4.55;;;;;;;;;;5068493;28;20044;-49
2023/07/04 06:59:45;;;;;;;6.72;4.40;;;;;;;;;;5054034;28;20032;-51
2023/07/04 07:02:15;;;;;;;8.85;4.70;;;;;;;;;;5047807;28;20028;-51
2023/07/04 07:04:41;;;;;;;11.55;4.40;;;27.90;99.90;;;;;;5081875;28;20036;-51
2023/07/04 07:07:09;;;;;;;8.32;4.20;;;28.00;99.90;;;;;;5067839;28;20072;-50
2023/07/04 07:09:40;;;;;;;10.30;5.20;;;28.20;99.90;;;;;;5054240;28;20029;-49
2023/07/04 07:12:11;;;;;;;8.68;4.38;;;28.60;99.90;;;;;;5053666;28;20055;-49
2023/07/04 07:14:37;;;;;;;8.75;4.25;;;28.50;99.90;;;;;;5083589;28;20052;-51
2023/07/04 07:17:05;;;;;;;5.20;3.47;;;28.20;99.90;;;;;;5054245;28;20160;-50
2023/07/04 07:19:31;;;;;;;5.65;3.70;;;28.40;99.90;;;;;;5065457;28;20401;-51
2023/07/04 07:21:58;;;;;;;6.50;3.08;;;28.20;99.90;;;;;;5053690;28;20051;-49
2023/07/04 07:24:23;;;;;;;5.75;3.63;;;28.30;99.90;;;;;;5064852;28;20191;-48
2023/07/04 07:26:49;;;;;;;5.45;3.08;;;28.20;99.90;;;;;;5051616;28;20124;-49
2023/07/04 07:29:15;;;;;;;5.78;3.13;;;28.30;99.90;;;;;;5015592;28;20131;-49
2023/07/04 07:31:41;;;;;;;10.27;3.33;;;28.30;99.90;;;;;;5053582;28;20578;-51
2023/07/04 07:34:06;;;;;;;9.00;3.63;;;28.50;99.90;;;;;;5067175;28;20045;-49
2023/07/04 07:36:37;;;;;;;7.72;3.47;;;;;;;;;;5054189;28;20025;-50
2023/07/04 07:39:04;;;;;;;6.22;3.60;;;;;;;;;;5053134;28;20024;-49
2023/07/04 07:41:31;;;;;;;5.18;3.30;;;;;;;;;;5053803;28;20033;-51
2023/07/04 07:43:57;;;;;;;5.90;3.28;;;;;;;;;;5053234;28;20368;-49
2023/07/04 07:46:24;;;;;;;11.85;3.88;;;;;;;;;;5053255;28;20484;-51
2023/07/04 07:48:50;;;;;;;6.03;3.35;;;;;;;;;;5053137;28;20033;-51
2023/07/04 07:51:18;;;;;;;6.18;3.05;;;29.60;99.90;;;;;;5053964;28;20063;-49
2023/07/04 07:53:46;;;;;;;4.18;2.85;;;29.80;99.90;;;;;;5051752;28;20060;-50
2023/07/04 07:56:16;;;;;;;6.93;3.75;;;30.00;99.90;;;;;;5052787;28;20064;-51
2023/07/04 07:58:42;;;;;;;5.78;3.45;;;29.80;99.90;;;;;;5052808;28;20043;-50
2023/07/04 08:01:13;;;;;;;4.78;3.30;;;29.80;99.90;;;;;;5068029;28;20124;-53
2023/07/04 08:03:40;;;;;;;4.18;2.78;;;29.90;99.90;;;;;;5053151;28;20025;-49
2023/07/04 08:06:06;;;;;;;7.88;3.53;;;29.90;99.90;;;;;;5082077;28;20032;-51
2023/07/04 08:08:32;;;;;;;3.90;2.72;;;29.90;99.90;;;;;;5050526;28;20032;-50
2023/07/04 08:10:58;;;;;;;4.63;3.22;;;29.90;99.90;;;;;;5067183;28;20041;-51
2023/07/04 08:13:24;;;;;;;6.68;2.78;;;30.00;99.90;;;;;;5047970;28;20508;-52
2023/07/04 08:15:56;;;;;;;10.48;4.65;;;30.00;99.90;;;;;;5048085;28;20029;-51
2023/07/04 08:18:22;;;;;;;11.90;4.15;;;30.10;99.90;;;;;;5043631;28;20483;-50
2023/07/04 08:21:01;;;;;;;5.85;3.53;;;30.10;99.90;;;;;;5049540;28;20079;-50
2023/07/04 08:23:28;;;;;;;5.35;3.53;;;30.30;99.90;;;;;;5049254;28;20451;-51
2023/07/04 08:25:54;;;;;;;7.53;3.75;;;30.70;99.90;;;;;;5066677;28;20037;-52
2023/07/04 08:28:23;;;;;;;8.93;3.60;;;31.00;99.90;;;;;;5050751;28;20020;-51
2023/07/04 08:30:50;;;;;;;7.13;3.40;;;31.00;99.90;;;;;;5049205;28;20374;-51
2023/07/04 08:33:17;;;;;;;8.77;3.55;;;31.30;99.90;;;;;;5051470;28;20025;-51
2023/07/04 08:36:00;;;;;;;10.90;3.83;;;;;;;;;;5052847;28;20025;-50
2023/07/04 08:38:26;;;;;;;4.45;3.35;;;32.40;99.90;;;;;;5083324;28;20068;-50
2023/07/04 08:40:52;;;;;;;6.45;3.95;;;32.20;99.90;;;;;;5044073;28;20026;-51
2023/07/04 08:43:42;;;;;;;5.97;3.72;;;32.30;99.90;;;;;;5051699;28;20029;-50
2023/07/04 08:46:09;;;;;;;6.05;4.22;;;;;;;;;;5013303;28;20068;-52
2023/07/04 08:48:36;;;;;;;5.75;3.78;;;32.50;99.90;;;;;;5030105;28;20048;-50
2023/07/04 08:51:03;;;;;;;4.50;3.22;;;32.70;99.90;;;;;;5029717;28;20048;-50
2023/07/04 08:53:30;;;;;;;5.82;3.22;;;;;;;;;;5030488;28;20034;-50
2023/07/04 08:56:33;;;;;;;6.30;3.45;;;33.00;99.90;;;;;;5029752;28;20037;-50
2023/07/04 08:59:37;;;;;;;8.98;3.33;;;33.10;99.90;;;;;;5010331;28;20076;-51
2023/07/04 09:02:29;;;;;;;4.75;2.80;;;33.20;99.90;;;;;;5009913;28;20042;-50
2023/07/04 09:05:04;;;;;;;4.43;2.65;;;;;;;;;;5010155;28;20034;-51
2023/07/04 09:07:47;;;;;;;6.15;2.75;;;32.20;99.10;;;;;;5009950;28;20088;-50
2023/07/04 09:10:19;;;;;;;4.30;2.70;;;32.50;99.90;;;;;;5009655;28;20508;-51
2023/07/04 09:12:46;;;;;;;8.00;3.10;;;32.40;99.90;;;;;;5009924;28;20057;-51
2023/07/04 09:15:27;;;;;;;8.63;3.03;;;32.60;99.90;;;;;;4991417;28;20042;-51
2023/07/04 09:18:08;;;;;;;4.97;2.90;;;32.90;99.90;;;;;;5010374;28;20520;-50
2023/07/04 09:20:42;;;;;;;6.55;2.85;;;33.20;99.90;;;;;;5009693;28;20080;-50
2023/07/04 09:23:16;;;;;;;5.53;3.22;;;32.90;99.90;;;;;;5015122;28;20128;-51
2023/07/04 09:25:46;;;;;;;6.85;3.00;;;32.80;99.80;;;;;;5005752;28;20506;-51
2023/07/04 09:28:12;;;;;;;4.57;3.20;;;33.00;99.90;;;;;;5029645;28;20132;-51
2023/07/04 09:30:38;;;;;;;4.18;2.63;;;32.90;99.90;;;;;;5024790;28;20120;-50
2023/07/04 09:33:04;;;;;;;5.38;3.08;;;32.80;99.90;;;;;;5028199;28;20120;-51
2023/07/04 09:35:31;;;;;;;5.70;3.22;;;33.10;99.90;;;;;;5027573;28;20140;-50
2023/07/04 09:37:59;;;;;;;5.35;3.25;;;33.50;99.50;;;;;;5031398;28;20055;-50
2023/07/04 09:40:50;;;;;;;4.15;3.10;;;33.60;98.90;;;;;;5032418;28;20092;-50
2023/07/04 09:43:31;;;;;;;8.70;3.45;;;33.80;99.10;;;;;;5026590;28;20037;-50
2023/07/04 09:46:22;;;;;;;7.55;4.68;;;33.30;97.80;;;;;;5029408;28;20091;-50
2023/07/04 09:48:47;;;;;;;4.90;3.42;;;33.70;98.20;;;;;;5031777;28;20038;-52
2023/07/04 09:51:22;;;;;;;5.57;3.35;;;33.50;97.30;;;;;;5032088;28;20034;-50
2023/07/04 09:53:48;;;;;;;4.45;2.65;;;33.80;97.30;;;;;;5031257;28;20052;-50
2023/07/04 09:56:27;;;;;;;5.20;3.35;;;34.20;97.60;;;;;;5029442;28;20425;-50
2023/07/04 09:59:24;;;;;;;5.63;2.70;;;34.40;97.10;;;;;;5031070;28;20025;-50
2023/07/04 10:01:52;;;;;;;5.15;3.33;;;34.60;96.50;;;;;;5025342;28;20045;-51
2023/07/04 10:04:38;;;;;;;3.53;2.35;;;35.00;96.70;;;;;;5031161;28;20041;-50
2023/07/04 10:07:12;;;;;;;5.90;3.08;;;34.00;95.20;;;;;;5026939;28;20032;-50
2023/07/04 10:10:04;;;;;;;4.60;3.00;;;34.50;95.70;;;;;;5031603;28;20501;-50
2023/07/04 10:12:32;;;;;;;5.05;2.97;;;34.20;95.20;;;;;;5030304;28;20049;-51
2023/07/04 10:14:59;;;;;;;5.10;2.92;;;34.50;95.50;;;;;;5066904;28;20054;-50
2023/07/04 10:17:28;;;;;;;6.82;3.25;;;34.80;93.90;;;;;;5027536;28;20033;-50
2023/07/04 10:20:05;;;;;;;5.50;2.78;;;34.50;94.00;;;;;;5035053;28;20033;-50
2023/07/04 10:22:40;;;;;;;4.15;2.17;;;34.50;93.50;;;;;;5048518;28;20044;-51
2023/07/04 10:25:15;;;;;;;4.97;2.88;;;34.30;92.70;;;;;;5034207;28;20432;-51
2023/07/04 10:27:44;;;;;;;5.05;3.10;;;34.70;93.30;;;;;;5035312;28;20033;-50
2023/07/04 10:30:18;;;;;;;3.97;2.58;;;34.80;93.10;;;;;;5034348;28;20042;-50
2023/07/04 10:32:53;;;;;;;5.40;2.90;;;34.10;92.30;;;;;;5034637;28;20491;-50
2023/07/04 10:35:27;;;;;;;3.75;2.55;;;34.20;93.10;;;;;;5032656;28;20439;-50
2023/07/04 10:37:59;;;;;;;5.88;2.72;;;34.40;92.60;;;;;;5029308;28;20091;-50
2023/07/04 10:40:27;;;;;;;6.75;2.65;;;34.90;92.30;;;;;;5034756;28;20034;-50
2023/07/04 10:42:55;;;;;;;4.50;2.28;;;35.50;92.60;;;;;;5034819;28;21239;-50
2023/07/04 10:45:25;;;;;;;5.15;2.30;;;35.00;90.80;;;;;;5034659;28;20424;-51
2023/07/04 10:48:02;;;;;;;6.32;2.78;;;35.30;90.50;;;;;;5032866;28;20029;-51
2023/07/04 10:50:31;;;;;;;5.43;2.58;;;35.30;90.70;;;;;;5035073;28;20041;-50
2023/07/04 10:52:57;;;;;;;4.15;2.53;;;35.40;90.80;;;;;;5027445;28;20543;-50
2023/07/04 10:55:29;;;;;;;4.40;2.60;;;35.80;91.30;;;;;;5046975;28;20056;-50
2023/07/04 10:58:04;;;;;;;9.20;4.07;;;36.00;91.70;;;;;;5031153;28;20025;-50
2023/07/04 11:00:51;;;;;;;5.10;2.92;;;36.50;91.20;;;;;;5034407;28;20037;-50
2023/07/04 11:03:51;;;;;;;6.45;3.17;;;36.40;91.00;;;;;;5034167;28;20496;-50
2023/07/04 11:06:30;;;;;;;4.45;2.72;;;36.00;91.00;;;;;;4993440;28;20199;-50
2023/07/04 11:08:57;;;;;;;3.03;2.22;;;36.60;91.20;;;;;;4990068;28;20038;-52
2023/07/04 11:11:29;;;;;;;3.13;2.10;;;36.90;99.90;;;;;;4986839;28;20045;-50
2023/07/04 11:14:00;;;;;;;3.83;2.20;;;36.90;89.30;;;;;;4977178;28;20050;-50
2023/07/04 11:16:31;;;;;;;3.78;2.58;;;36.90;89.30;;;;;;4990173;28;20533;-50
2023/07/04 11:19:06;;;;;;;5.63;2.83;;;36.70;89.10;;;;;;4991237;28;20027;-51
2023/07/04 11:21:32;;;;;;;3.72;2.75;;;35.90;89.40;;;;;;4990102;28;20030;-51
2023/07/04 11:24:17;;;;;;;4.07;2.80;;;35.80;89.40;;;;;;4989997;28;20480;-52
2023/07/04 11:27:05;;;;;;;4.28;2.97;;;35.60;88.10;;;;;;4993319;28;20050;-50
2023/07/04 11:29:53;;;;;;;4.40;2.33;;;35.30;89.80;;;;;;4982434;28;20050;-50
2023/07/04 11:32:25;;;;;;;6.45;2.72;;;35.70;89.20;;;;;;4987074;28;20085;-50
2023/07/04 11:35:15;;;;;;;3.35;2.67;;;35.00;89.20;;;;;;4990317;28;20046;-51
2023/07/04 11:37:51;;;;;;;4.93;3.17;;;35.60;89.80;;;;;;4922516;29;20131;-50
2023/07/04 11:40:23;;;;;;;4.97;2.72;;;35.90;90.00;;;;;;4936628;29;20520;-50
2023/07/04 11:42:54;;;;;;;6.85;2.60;;;36.30;90.10;;;;;;4942939;28;20070;-52
2023/07/04 11:45:22;;;;;;;4.03;2.45;;;36.10;87.90;;;;;;4960705;28;20395;-51
2023/07/04 11:48:00;;;;;;;4.13;2.63;;;36.50;88.20;;;;;;4950381;28;20028;-51
2023/07/04 11:50:43;;;;;;;4.97;2.70;;;36.20;87.00;;;;;;4946788;28;20035;-50
2023/07/04 11:53:16;;;;;;;5.45;2.67;;;37.00;87.90;;;;;;4951722;28;20531;-50
2023/07/04 11:55:42;;;;;;;3.63;2.53;;;37.30;87.60;;;;;;4947380;28;20438;-51
2023/07/04 11:58:08;;;;;;;4.45;2.83;;;;;;;;;;4953127;29;20039;-51
2023/07/04 12:00:40;;;;;;;3.25;2.05;;;;;;;;;;4953882;29;20476;-50
2023/07/04 12:03:18;;;;;;;3.35;2.22;;;37.90;86.00;;;;;;4954078;29;20062;-51
2023/07/04 12:05:48;;;;;;;4.95;3.45;;;38.10;88.20;;;;;;4954132;28;20031;-51
2023/07/04 12:08:19;;;;;;;9.73;4.05;;;38.50;87.50;;;;;;4954060;29;20063;-51
2023/07/04 12:10:46;;;;;;;5.20;3.42;;;;;;;;;;4954074;28;20059;-49
2023/07/04 12:13:16;;;;;;;4.65;2.60;;;;;;;;;;4953777;29;20035;-51
2023/07/04 12:15:51;;;;;;;5.38;3.40;;;38.70;96.00;;;;;;5029396;28;20132;-51
2023/07/04 12:18:24;;;;;;;5.97;3.33;;;;;;;;;;5048869;28;20037;-50
2023/07/04 12:20:51;;;;;;;4.03;2.67;;;37.80;99.20;;;;;;5033914;28;20033;-51
2023/07/04 12:23:17;;;;;;;6.68;3.30;;;38.00;96.80;;;;;;5031906;28;20056;-51
2023/07/04 12:25:47;;;;;;;4.05;2.80;;;38.10;96.10;;;;;;5034220;28;20033;-50
2023/07/04 12:28:14;;;;;;;5.22;3.00;;;38.30;90.30;;;;;;5033796;28;20052;-51
2023/07/04 12:30:46;;;;;;;5.85;2.75;;;38.40;85.90;;;;;;5033851;28;20036;-51
2023/07/04 12:33:30;;;;;;;5.53;2.90;;;37.80;87.40;;;;;;5033611;28;20117;-51
2023/07/04 12:36:05;;;;;;;4.80;3.08;;;37.30;86.80;;;;;;5034046;28;20143;-50
2023/07/04 12:38:32;;;;;;;5.65;3.05;;;37.20;86.30;;;;;;5033827;28;20037;-50
2023/07/04 12:40:59;;;;;;;3.50;2.28;;;37.20;88.80;;;;;;5033243;28;20029;-50
2023/07/04 12:43:30;;;;;;;4.18;2.83;;;37.50;86.00;;;;;;5033899;28;20038;-51
2023/07/04 12:46:15;;;;;;;5.15;3.15;;;37.00;86.50;;;;;;5031878;28;20038;-51
2023/07/04 12:48:42;;;;;;;11.15;3.40;;;36.20;89.90;;;;;;5033701;28;20034;-49
2023/07/04 12:51:16;;;;;;;4.35;3.20;;;35.40;91.00;;;;;;5033312;28;20042;-50
2023/07/04 12:53:43;;;;;;;4.55;3.15;;;34.20;91.00;;;;;;5033569;28;20045;-51
2023/07/04 12:56:10;;;;;;;6.15;3.95;;;33.80;92.00;;;;;;5033311;28;20037;-50
2023/07/04 12:58:40;;;;;;;7.30;4.47;;;33.70;92.10;;;;;;5033359;28;20043;-52
2023/07/04 13:01:10;;;;;;;5.30;3.20;;;33.80;92.00;;;;;;5033212;28;20080;-50
2023/07/04 13:03:37;;;;;;;6.85;3.13;;;33.40;92.50;;;;;;5015548;28;20124;-50
2023/07/04 13:06:07;;;;;;;8.27;3.58;;;33.10;93.30;;;;;;5033487;28;20037;-51
2023/07/04 13:08:37;;;;;;;5.38;3.28;;;;;;;;;;5033254;28;20040;-50
2023/07/04 13:11:05;;;;;;;6.95;3.40;;;32.40;93.20;;;;;;5033234;28;20052;-50
2023/07/04 13:13:35;;;;;;;8.73;3.60;;;;;;;;;;5033092;28;20045;-50